createdAt,value
2022-11-27T00:01:19.650Z,96801.72
2022-11-27T00:03:48.140Z,96797.47
2022-11-27T00:06:20.171Z,96804.22
2022-11-27T00:08:48.410Z,96802.53
2022-11-27T00:11:18.912Z,96794.78
2022-11-27T00:13:47.528Z,96791.13
2022-11-27T00:16:16.515Z,96792.28
2022-11-27T00:18:44.790Z,96785.25
2022-11-27T00:21:14.685Z,96773.16
2022-11-27T00:23:44.577Z,96768.31
2022-11-27T00:26:12.707Z,96766.66
2022-11-27T00:28:41.128Z,96759.28
2022-11-27T00:31:13.583Z,96755.22
2022-11-27T00:33:42.234Z,96749.81
2022-11-27T00:36:11.385Z,96749.19
2022-11-27T00:38:39.747Z,96745.94
2022-11-27T00:41:10.689Z,96742.13
2022-11-27T00:43:44.533Z,96739.31
2022-11-27T00:46:13.304Z,96730.81
2022-11-27T00:48:41.415Z,96746.41
2022-11-27T00:51:11.373Z,96733.88
2022-11-27T00:53:39.383Z,96740.91
2022-11-27T00:56:09.074Z,96739.06
2022-11-27T00:58:37.117Z,96737.72
2022-11-27T01:01:07.540Z,96739.06
2022-11-27T01:03:37.028Z,96739.69
2022-11-27T01:06:06.517Z,96746.75
2022-11-27T01:08:34.864Z,96746.91
2022-11-27T01:11:03.353Z,96729.84
2022-11-27T01:13:35.293Z,96748.56
2022-11-27T01:16:05.087Z,96741.25
2022-11-27T01:18:33.486Z,96734.94
2022-11-27T01:21:01.239Z,96735.66
2022-11-27T01:23:29.375Z,96724.81
2022-11-27T01:25:57.036Z,96728.00
2022-11-27T01:28:25.463Z,96726.00
2022-11-27T01:30:54.559Z,96727.47
2022-11-27T01:33:22.332Z,96722.47
2022-11-27T01:35:57.186Z,96721.28
2022-11-27T01:38:25.670Z,96718.50
2022-11-27T01:40:58.215Z,96722.03
2022-11-27T01:43:40.856Z,96717.22
2022-11-27T01:46:17.924Z,96714.50
2022-11-27T01:48:48.410Z,96708.50
2022-11-27T01:51:16.270Z,96698.72
2022-11-27T01:53:44.354Z,96704.44
2022-11-27T01:56:12.615Z,96697.66
2022-11-27T01:58:41.074Z,96696.38
2022-11-27T02:01:08.845Z,96687.47
2022-11-27T02:03:38.291Z,96687.66
2022-11-27T02:06:06.457Z,96689.69
2022-11-27T02:08:34.486Z,96677.06
2022-11-27T02:11:07.631Z,96679.56
2022-11-27T02:13:40.884Z,96679.13
2022-11-27T02:16:18.907Z,96664.38
2022-11-27T02:18:57.322Z,96643.59
2022-11-27T02:21:37.747Z,96641.66
2022-11-27T02:24:47.816Z,96643.59
2022-11-27T02:27:54.217Z,96629.16
2022-11-27T02:30:23.716Z,96643.19
2022-11-27T02:32:58.055Z,96640.94
2022-11-27T02:35:33.130Z,96637.78
2022-11-27T02:38:07.464Z,96632.97
2022-11-27T02:40:39.576Z,96641.50
2022-11-27T02:43:10.624Z,96632.78
2022-11-27T02:45:43.790Z,96634.25
2022-11-27T02:48:13.931Z,96631.97
2022-11-27T02:50:45.493Z,96626.09
2022-11-27T02:53:18.180Z,96629.25
2022-11-27T02:55:48.126Z,96618.88
2022-11-27T02:58:18.805Z,96613.22
2022-11-27T03:00:51.436Z,96609.81
2022-11-27T03:03:23.249Z,96604.25
2022-11-27T03:05:55.111Z,96606.34
2022-11-27T03:08:29.425Z,96604.31
2022-11-27T03:11:02.451Z,96604.13
2022-11-27T03:13:33.604Z,96606.25
2022-11-27T03:16:10.762Z,96603.75
2022-11-27T03:18:43.139Z,96597.47
2022-11-27T03:21:23.904Z,96597.00
2022-11-27T03:23:51.604Z,96596.47
2022-11-27T03:26:19.654Z,96598.97
2022-11-27T03:28:48.789Z,96599.91
2022-11-27T03:31:18.465Z,96596.75
2022-11-27T03:33:46.364Z,96586.38
2022-11-27T03:36:16.647Z,96596.13
2022-11-27T03:38:46.254Z,96587.41
2022-11-27T03:41:21.796Z,96582.13
2022-11-27T03:43:58.343Z,96585.91
2022-11-27T03:46:37.157Z,96593.78
2022-11-27T03:49:14.629Z,96582.88
2022-11-27T03:51:53.824Z,96582.88
2022-11-27T03:54:32.267Z,96582.97
2022-11-27T03:57:07.982Z,96589.16
2022-11-27T03:59:41.551Z,96580.28
2022-11-27T04:02:14.596Z,96574.91
2022-11-27T04:04:42.704Z,96575.47
2022-11-27T04:07:16.929Z,96577.97
2022-11-27T04:09:44.691Z,96576.19
2022-11-27T04:12:13.053Z,96576.00
2022-11-27T04:14:40.870Z,96572.69
2022-11-27T04:17:09.877Z,96576.88
2022-11-27T04:19:38.974Z,96579.47
2022-11-27T04:22:07.047Z,96583.97
2022-11-27T04:24:34.837Z,96579.56
2022-11-27T04:27:02.801Z,96584.47
2022-11-27T04:29:30.471Z,96586.94
2022-11-27T04:31:58.596Z,96598.41
2022-11-27T04:34:26.283Z,96589.94
2022-11-27T04:36:55.674Z,96588.28
2022-11-27T04:39:23.340Z,96586.94
2022-11-27T04:41:51.425Z,96582.59
2022-11-27T04:44:19.132Z,96579.34
2022-11-27T04:46:47.333Z,96574.25
2022-11-27T04:49:15.135Z,96566.84
2022-11-27T04:51:43.506Z,96573.78
2022-11-27T04:54:12.567Z,96572.41
2022-11-27T04:56:40.608Z,96572.41
2022-11-27T04:59:08.339Z,96574.06
2022-11-27T05:01:36.376Z,96575.25
2022-11-27T05:04:04.172Z,96583.81
2022-11-27T05:06:31.843Z,96592.84
2022-11-27T05:09:02.111Z,96582.16
2022-11-27T05:11:32.419Z,96581.88
2022-11-27T05:14:14.110Z,96585.69
2022-11-27T05:16:42.221Z,96582.38
2022-11-27T05:19:10.416Z,96594.13
2022-11-27T05:21:38.543Z,96587.56
2022-11-27T05:24:07.310Z,96588.22
2022-11-27T05:26:37.343Z,96583.34
2022-11-27T05:29:05.375Z,96589.56
2022-11-27T05:31:33.542Z,96581.41
2022-11-27T05:34:01.338Z,96580.09
2022-11-27T05:36:29.285Z,96585.84
2022-11-27T05:38:57.368Z,96580.47
2022-11-27T05:41:25.033Z,96564.91
2022-11-27T05:43:54.106Z,96577.88
2022-11-27T05:46:23.974Z,96570.91
2022-11-27T05:48:51.778Z,96575.94
2022-11-27T05:51:20.001Z,96565.47
2022-11-27T05:53:48.074Z,96570.91
2022-11-27T05:56:17.950Z,96577.34
2022-11-27T05:58:48.368Z,96564.09
2022-11-27T06:01:19.435Z,96564.00
2022-11-27T06:03:47.189Z,96558.63
2022-11-27T06:06:17.073Z,96564.09
2022-11-27T06:08:45.646Z,96555.94
2022-11-27T06:11:15.151Z,96556.59
2022-11-27T06:13:43.860Z,96564.19
2022-11-27T06:16:14.713Z,96551.97
2022-11-27T06:18:44.494Z,96551.56
2022-11-27T06:21:14.971Z,96560.84
2022-11-27T06:23:44.323Z,96551.56
2022-11-27T06:26:14.663Z,96544.72
2022-11-27T06:28:43.489Z,96543.47
2022-11-27T06:31:17.527Z,96539.28
2022-11-27T06:33:47.673Z,96536.88
2022-11-27T06:36:15.716Z,96540.50
2022-11-27T06:38:44.228Z,96544.03
2022-11-27T06:41:13.392Z,96542.16
2022-11-27T06:43:41.504Z,96556.41
2022-11-27T06:46:13.566Z,96552.53
2022-11-27T06:48:42.296Z,96553.44
2022-11-27T06:51:14.242Z,96545.78
2022-11-27T06:53:42.975Z,96541.22
2022-11-27T06:56:12.836Z,96542.00
2022-11-27T06:58:42.112Z,96544.56
2022-11-27T07:01:13.042Z,96537.34
2022-11-27T07:03:42.034Z,96537.34
2022-11-27T07:06:13.347Z,96533.00
2022-11-27T07:08:41.626Z,96528.28
2022-11-27T07:11:12.965Z,96527.53
2022-11-27T07:13:41.420Z,96530.78
2022-11-27T07:16:11.126Z,96524.38
2022-11-27T07:18:41.286Z,96521.97
2022-11-27T07:21:09.828Z,96517.13
2022-11-27T07:23:39.953Z,96515.72
2022-11-27T07:26:08.678Z,96514.00
2022-11-27T07:28:36.692Z,96515.34
2022-11-27T07:31:04.944Z,96502.47
2022-11-27T07:33:33.471Z,96504.19
2022-11-27T07:36:02.797Z,96497.16
2022-11-27T07:38:30.665Z,96497.31
2022-11-27T07:41:01.770Z,96500.13
2022-11-27T07:43:30.270Z,96500.75
2022-11-27T07:45:58.320Z,96512.00
2022-11-27T07:48:26.590Z,96515.53
2022-11-27T07:50:54.252Z,96515.97
2022-11-27T07:53:22.470Z,96530.50
2022-11-27T07:55:50.153Z,96529.28
2022-11-27T07:58:20.136Z,96528.00
2022-11-27T08:00:48.457Z,96524.25
2022-11-27T08:03:17.281Z,96524.88
2022-11-27T08:05:44.930Z,96527.38
2022-11-27T08:08:13.132Z,96527.06
2022-11-27T08:10:42.185Z,96528.31
2022-11-27T08:13:10.804Z,96526.75
2022-11-27T08:15:39.807Z,96522.09
2022-11-27T08:18:07.466Z,96515.03
2022-11-27T08:20:35.265Z,96516.78
2022-11-27T08:23:03.403Z,96508.47
2022-11-27T08:25:31.324Z,96510.16
2022-11-27T08:27:59.148Z,96507.19
2022-11-27T08:30:27.248Z,96502.13
2022-11-27T08:32:56.257Z,96498.38
2022-11-27T08:35:24.652Z,96488.03
2022-11-27T08:37:52.409Z,96481.31
2022-11-27T08:40:21.040Z,96477.34
2022-11-27T08:42:48.671Z,96479.59
2022-11-27T08:45:16.933Z,96470.72
2022-11-27T08:47:44.616Z,96476.59
2022-11-27T08:50:14.120Z,96473.78
2022-11-27T08:52:41.793Z,96478.88
2022-11-27T08:55:10.014Z,96478.09
2022-11-27T08:57:37.916Z,96473.16
2022-11-27T09:00:07.625Z,96473.00
2022-11-27T09:02:35.727Z,96464.84
2022-11-27T09:05:06.466Z,96460.06
2022-11-27T09:07:35.553Z,96459.19
2022-11-27T09:10:03.576Z,96456.44
2022-11-27T09:12:31.234Z,96448.31
2022-11-27T09:14:59.288Z,96448.19
2022-11-27T09:17:26.994Z,96447.97
2022-11-27T09:19:54.844Z,96442.41
2022-11-27T09:22:22.679Z,96443.31
2022-11-27T09:24:52.028Z,96448.16
2022-11-27T09:27:19.685Z,96444.00
2022-11-27T09:29:47.971Z,96441.34
2022-11-27T09:32:15.666Z,96442.09
2022-11-27T09:34:44.408Z,96450.56
2022-11-27T09:37:12.519Z,96449.75
2022-11-27T09:39:40.506Z,96452.56
2022-11-27T09:42:25.644Z,96447.72
2022-11-27T09:45:00.499Z,96450.25
2022-11-27T09:47:41.294Z,96453.69
2022-11-27T09:50:15.883Z,96455.22
2022-11-27T09:52:47.353Z,96453.25
2022-11-27T09:55:21.234Z,96453.09
2022-11-27T09:57:57.333Z,96449.41
2022-11-27T10:00:25.172Z,96442.09
2022-11-27T10:02:53.848Z,96445.59
2022-11-27T10:05:24.507Z,96438.19
2022-11-27T10:08:07.604Z,96429.34
2022-11-27T10:10:41.799Z,96425.66
2022-11-27T10:13:24.083Z,96415.16
2022-11-27T10:15:58.070Z,96417.28
2022-11-27T10:18:33.244Z,96419.34
2022-11-27T10:21:08.785Z,96415.31
2022-11-27T10:23:45.165Z,96408.78
2022-11-27T10:26:18.972Z,96406.69
2022-11-27T10:28:57.771Z,96400.13
2022-11-27T10:31:37.044Z,96390.22
2022-11-27T10:34:08.607Z,96388.88
2022-11-27T10:36:41.168Z,96385.41
2022-11-27T10:39:17.989Z,96389.81
2022-11-27T10:41:53.065Z,96383.75
2022-11-27T10:44:29.876Z,96386.88
2022-11-27T10:47:03.024Z,96376.34
2022-11-27T10:49:31.138Z,96382.19
2022-11-27T10:51:59.156Z,96384.63
2022-11-27T10:54:31.990Z,96386.97
2022-11-27T10:57:30.840Z,96387.81
2022-11-27T11:00:07.808Z,96389.53
2022-11-27T11:02:38.085Z,96391.78
2022-11-27T11:05:57.301Z,96393.69
2022-11-27T11:08:18.353Z,96387.63
2022-11-27T11:10:53.200Z,96380.75
2022-11-27T11:13:23.101Z,96384.16
2022-11-27T11:15:55.606Z,96379.44
2022-11-27T11:18:25.389Z,96379.06
2022-11-27T11:20:55.784Z,96364.03
2022-11-27T11:23:28.855Z,96365.00
2022-11-27T11:26:00.736Z,96360.88
2022-11-27T11:28:29.565Z,96358.38
2022-11-27T11:31:02.844Z,96354.94
2022-11-27T11:33:31.043Z,96350.78
2022-11-27T11:36:09.392Z,96346.38
2022-11-27T11:38:38.309Z,96344.13
2022-11-27T11:41:09.518Z,96330.91
2022-11-27T11:43:38.469Z,96327.34
2022-11-27T11:46:17.567Z,96319.50
2022-11-27T11:48:55.588Z,96314.13
2022-11-27T11:51:34.240Z,96319.91
2022-11-27T11:54:14.086Z,96321.16
2022-11-27T11:56:49.895Z,96317.81
2022-11-27T11:59:27.375Z,96318.25
2022-11-27T12:02:35.613Z,96306.28
2022-11-27T12:05:16.756Z,96308.31
2022-11-27T12:08:00.636Z,96308.88
2022-11-27T12:10:32.306Z,96292.34
2022-11-27T12:13:08.837Z,96294.00
2022-11-27T12:15:43.119Z,96288.84
2022-11-27T12:18:20.033Z,96284.34
2022-11-27T12:21:01.154Z,96278.56
2022-11-27T12:24:06.725Z,96275.41
2022-11-27T12:26:48.390Z,96278.28
2022-11-27T12:29:35.063Z,96276.06
2022-11-27T12:32:26.742Z,96277.72
2022-11-27T12:35:11.177Z,96281.88
2022-11-27T12:37:51.551Z,96271.69
2022-11-27T12:40:36.403Z,96257.03
2022-11-27T12:43:13.472Z,96265.69
2022-11-27T12:45:48.322Z,96254.72
2022-11-27T12:48:21.308Z,96247.56
2022-11-27T12:50:55.001Z,96250.91
2022-11-27T12:53:29.823Z,96238.94
2022-11-27T12:56:05.733Z,96239.69
2022-11-27T12:58:38.477Z,96243.63
2022-11-27T13:01:08.974Z,96233.81
2022-11-27T13:03:45.311Z,96221.75
2022-11-27T13:06:19.768Z,96222.13
2022-11-27T13:08:56.228Z,96229.63
2022-11-27T13:11:28.877Z,96225.78
2022-11-27T13:14:02.778Z,96221.50
2022-11-27T13:16:35.924Z,96207.94
2022-11-27T13:19:12.424Z,96203.78
2022-11-27T13:21:43.976Z,96205.50
2022-11-27T13:24:13.386Z,96205.31
2022-11-27T13:26:45.163Z,96205.75
2022-11-27T13:29:20.609Z,96195.84
2022-11-27T13:31:52.840Z,96198.91
2022-11-27T13:34:24.913Z,96200.03
2022-11-27T13:36:59.634Z,96195.88
2022-11-27T13:39:31.470Z,96199.50
2022-11-27T13:42:07.051Z,96205.56
2022-11-27T13:44:39.483Z,96208.84
2022-11-27T13:47:11.432Z,96201.00
2022-11-27T13:49:39.948Z,96196.16
2022-11-27T13:52:12.904Z,96195.06
2022-11-27T13:54:51.992Z,96188.72
2022-11-27T13:57:21.109Z,96189.81
2022-11-27T14:00:00.272Z,96190.66
2022-11-27T14:02:40.873Z,96190.91
2022-11-27T14:05:09.397Z,96183.63
2022-11-27T14:07:43.280Z,96175.78
2022-11-27T14:10:16.050Z,96180.56
2022-11-27T14:12:52.432Z,96174.50
2022-11-27T14:15:24.340Z,96178.25
2022-11-27T14:17:55.200Z,96173.72
2022-11-27T14:20:30.220Z,96170.56
2022-11-27T14:23:11.739Z,96172.22
2022-11-27T14:25:40.758Z,96180.59
2022-11-27T14:28:16.754Z,96182.38
2022-11-27T14:30:47.952Z,96180.44
2022-11-27T14:33:19.169Z,96174.00
2022-11-27T14:35:50.318Z,96167.13
2022-11-27T14:38:19.726Z,96171.03
2022-11-27T14:40:47.684Z,96168.00
2022-11-27T14:43:17.049Z,96163.03
2022-11-27T14:45:47.597Z,96150.50
2022-11-27T14:48:22.036Z,96164.41
2022-11-27T14:50:50.664Z,96164.13
2022-11-27T14:53:21.489Z,96163.53
2022-11-27T14:55:50.680Z,96155.28
2022-11-27T14:58:21.546Z,96152.56
2022-11-27T15:00:53.648Z,96140.44
2022-11-27T15:03:21.691Z,96144.00
2022-11-27T15:05:55.794Z,96143.97
2022-11-27T15:08:25.568Z,96136.66
2022-11-27T15:10:55.700Z,96149.72
2022-11-27T15:13:26.248Z,96144.22
2022-11-27T15:15:58.890Z,96147.56
2022-11-27T15:18:28.400Z,96142.34
2022-11-27T15:20:56.572Z,96136.50
2022-11-27T15:23:28.587Z,96130.28
2022-11-27T15:26:14.938Z,96132.53
2022-11-27T15:28:50.992Z,96127.47
2022-11-27T15:31:25.881Z,96125.38
2022-11-27T15:34:02.513Z,96119.72
2022-11-27T15:36:39.597Z,96121.31
2022-11-27T15:39:22.445Z,96118.66
2022-11-27T15:41:55.718Z,96104.72
2022-11-27T15:44:23.868Z,96097.72
2022-11-27T15:46:52.254Z,96096.91
2022-11-27T15:49:20.575Z,96082.84
2022-11-27T15:51:48.554Z,96083.69
2022-11-27T15:54:16.357Z,96080.38
2022-11-27T15:56:46.771Z,96073.66
2022-11-27T15:59:15.221Z,96071.53
2022-11-27T16:01:43.625Z,96068.59
2022-11-27T16:04:11.308Z,96059.78
2022-11-27T16:06:39.420Z,96058.25
2022-11-27T16:09:07.272Z,96056.59
2022-11-27T16:11:35.257Z,96051.19
2022-11-27T16:14:04.420Z,96052.66
2022-11-27T16:16:32.513Z,96040.84
2022-11-27T16:19:01.144Z,96035.84
2022-11-27T16:21:30.426Z,96029.53
2022-11-27T16:23:59.583Z,96027.53
2022-11-27T16:26:28.359Z,96012.06
2022-11-27T16:28:56.618Z,96021.09
2022-11-27T16:31:26.287Z,96013.34
2022-11-27T16:33:54.041Z,96009.25
2022-11-27T16:36:25.401Z,95995.63
2022-11-27T16:38:54.364Z,96003.56
2022-11-27T16:41:25.685Z,96001.66
2022-11-27T16:43:56.838Z,95999.66
2022-11-27T16:46:29.389Z,96003.00
2022-11-27T16:48:58.932Z,95998.16
2022-11-27T16:51:32.006Z,95997.66
2022-11-27T16:54:01.454Z,95995.06
2022-11-27T16:56:31.165Z,95997.53
2022-11-27T16:59:03.107Z,95981.63
2022-11-27T17:01:36.261Z,95996.69
2022-11-27T17:04:07.105Z,95992.72
2022-11-27T17:06:35.546Z,95981.25
2022-11-27T17:09:05.537Z,95980.19
2022-11-27T17:11:36.285Z,95988.00
2022-11-27T17:14:06.750Z,95982.09
2022-11-27T17:16:39.101Z,95976.88
2022-11-27T17:19:07.342Z,95975.66
2022-11-27T17:21:36.190Z,95969.16
2022-11-27T17:24:14.309Z,95970.91
2022-11-27T17:26:44.735Z,95967.38
2022-11-27T17:29:13.885Z,95962.72
2022-11-27T17:31:44.140Z,95968.25
2022-11-27T17:34:13.190Z,95962.09
2022-11-27T17:36:42.969Z,95953.19
2022-11-27T17:39:13.209Z,95960.03
2022-11-27T17:41:42.175Z,95948.78
2022-11-27T17:44:10.061Z,95934.59
2022-11-27T17:46:39.938Z,95926.06
2022-11-27T17:49:09.633Z,95934.00
2022-11-27T17:51:38.464Z,95936.41
2022-11-27T17:54:06.442Z,95930.00
2022-11-27T17:56:35.996Z,95936.41
2022-11-27T17:59:04.296Z,95922.75
2022-11-27T18:01:35.003Z,95930.13
2022-11-27T18:04:05.403Z,95930.97
2022-11-27T18:06:36.265Z,95929.88
2022-11-27T18:09:04.794Z,95919.94
2022-11-27T18:11:34.521Z,95919.19
2022-11-27T18:14:02.748Z,95908.53
2022-11-27T18:16:33.517Z,95905.22
2022-11-27T18:19:04.600Z,95913.97
2022-11-27T18:21:34.169Z,95911.50
2022-11-27T18:27:07.763Z,95906.88
2022-11-27T18:29:37.628Z,95893.72
2022-11-27T18:32:06.307Z,95889.34
2022-11-27T18:34:34.404Z,95889.34
2022-11-27T18:37:04.981Z,95892.63
2022-11-27T18:39:32.696Z,95893.31
2022-11-27T18:42:00.953Z,95889.88
2022-11-27T18:44:28.636Z,95883.63
2022-11-27T18:46:56.716Z,95883.47
2022-11-27T18:49:24.409Z,95885.25
2022-11-27T18:51:53.576Z,95881.69
2022-11-27T18:54:22.868Z,95874.84
2022-11-27T18:56:51.251Z,95867.84
2022-11-27T18:59:19.327Z,95866.19
2022-11-27T19:01:47.109Z,95859.22
2022-11-27T19:04:15.787Z,95840.56
2022-11-27T19:06:44.675Z,95832.59
2022-11-27T19:09:14.355Z,95835.94
2022-11-27T19:11:45.119Z,95829.91
2022-11-27T19:14:14.265Z,95824.69
2022-11-27T19:16:45.866Z,95834.25
2022-11-27T19:19:52.884Z,95829.03
2022-11-27T19:22:07.526Z,95831.53
2022-11-27T19:24:37.931Z,95816.59
2022-11-27T19:27:07.429Z,95819.34
2022-11-27T19:29:36.025Z,95826.88
2022-11-27T19:32:03.879Z,95828.53
2022-11-27T19:34:32.150Z,95824.81
2022-11-27T19:36:59.790Z,95830.59
2022-11-27T19:39:28.752Z,95835.16
2022-11-27T19:41:57.745Z,95821.53
2022-11-27T19:44:26.838Z,95821.97
2022-11-27T19:46:54.627Z,95820.88
2022-11-27T19:49:22.371Z,95815.66
2022-11-27T19:51:50.831Z,95822.53
2022-11-27T19:54:20.534Z,95826.63
2022-11-27T19:56:50.146Z,95812.53
2022-11-27T19:59:25.589Z,95797.84
2022-11-27T20:01:56.092Z,95793.19
2022-11-27T20:04:29.237Z,95802.53
2022-11-27T20:06:56.947Z,95788.66
2022-11-27T20:09:24.805Z,95790.16
2022-11-27T20:11:52.495Z,95794.00
2022-11-27T20:14:20.810Z,95789.06
2022-11-27T20:16:48.588Z,95781.66
2022-11-27T20:19:19.132Z,95764.94
2022-11-27T20:21:46.961Z,95765.50
2022-11-27T20:24:14.970Z,95766.59
2022-11-27T20:26:43.820Z,95757.13
2022-11-27T20:29:12.763Z,95751.78
2022-11-27T20:31:43.725Z,95750.81
2022-11-27T20:34:15.918Z,95743.13
2022-11-27T20:36:45.066Z,95740.53
2022-11-27T20:39:20.585Z,95729.97
2022-11-27T20:41:50.354Z,95730.09
2022-11-27T20:44:18.600Z,95729.00
2022-11-27T20:46:46.697Z,95726.25
2022-11-27T20:49:15.039Z,95713.34
2022-11-27T20:51:42.917Z,95711.13
2022-11-27T20:54:13.119Z,95703.75
2022-11-27T20:56:43.212Z,95701.00
2022-11-27T20:59:12.755Z,95707.31
2022-11-27T21:01:41.828Z,95694.53
2022-11-27T21:04:20.461Z,95695.25
2022-11-27T21:06:48.244Z,95690.56
2022-11-27T21:09:17.646Z,95691.38
2022-11-27T21:11:46.124Z,95686.72
2022-11-27T21:14:16.071Z,95684.81
2022-11-27T21:16:46.817Z,95679.03
2022-11-27T21:19:18.072Z,95678.22
2022-11-27T21:21:45.865Z,95673.28
2022-11-27T21:24:14.785Z,95674.94
2022-11-27T21:26:44.735Z,95672.47
2022-11-27T21:29:16.160Z,95664.78
2022-11-27T21:31:47.130Z,95663.16
2022-11-27T21:34:15.815Z,95659.28
2022-11-27T21:36:44.950Z,95659.56
2022-11-27T21:39:20.707Z,95665.75
2022-11-27T21:41:52.903Z,95659.81
2022-11-27T21:44:21.597Z,95665.75
2022-11-27T21:46:50.558Z,95664.22
2022-11-27T21:49:21.443Z,95658.03
2022-11-27T21:51:52.389Z,95649.41
2022-11-27T21:54:20.929Z,95656.25
2022-11-27T21:56:53.398Z,95661.59
2022-11-27T21:59:21.184Z,95665.31
2022-11-27T22:01:49.410Z,95653.78
2022-11-27T22:04:17.611Z,95656.25
2022-11-27T22:06:45.400Z,95652.72
2022-11-27T22:09:15.789Z,95649.41
2022-11-27T22:11:44.968Z,95645.00
2022-11-27T22:14:15.367Z,95641.56
2022-11-27T22:16:46.389Z,95641.31
2022-11-27T22:19:16.331Z,95637.63
2022-11-27T22:21:45.698Z,95640.88
2022-11-27T22:24:18.860Z,95638.00
2022-11-27T22:26:51.380Z,95631.16
2022-11-27T22:29:20.533Z,95626.63
2022-11-27T22:31:48.379Z,95623.09
2022-11-27T22:34:17.194Z,95638.44
2022-11-27T22:36:47.115Z,95635.81
2022-11-27T22:39:14.749Z,95631.59
2022-11-27T22:41:43.696Z,95619.78
2022-11-27T22:44:18.701Z,95627.88
2022-11-27T22:46:48.653Z,95628.41
2022-11-27T22:49:18.909Z,95617.31
2022-11-27T22:51:47.363Z,95613.75
2022-11-27T22:54:17.802Z,95628.56
2022-11-27T22:56:47.888Z,95614.44
2022-11-27T22:59:33.644Z,95616.09
2022-11-27T23:02:05.083Z,95613.19
2022-11-27T23:04:33.401Z,95614.16
2022-11-27T23:07:01.432Z,95608.53
2022-11-27T23:09:30.115Z,95622.81
2022-11-27T23:11:58.573Z,95610.31
2022-11-27T23:14:26.721Z,95600.84
2022-11-27T23:16:54.719Z,95604.13
2022-11-27T23:19:23.960Z,95597.03
2022-11-27T23:21:52.209Z,95602.25
2022-11-27T23:24:19.960Z,95601.81
2022-11-27T23:26:47.850Z,95598.94
2022-11-27T23:29:15.609Z,95588.66
2022-11-27T23:31:43.948Z,95586.47
2022-11-27T23:34:15.820Z,95589.06
2022-11-27T23:36:46.125Z,95587.53
2022-11-27T23:39:14.942Z,95584.41
2022-11-27T23:41:43.465Z,95582.47
2022-11-27T23:44:11.163Z,95586.03
2022-11-27T23:46:39.276Z,95573.97
2022-11-27T23:49:07.249Z,95577.94
2022-11-27T23:51:35.897Z,95579.03
2022-11-27T23:54:08.092Z,95569.31
2022-11-27T23:56:36.481Z,95570.03
2022-11-27T23:59:04.453Z,95572.19
